Time;durP1;ratioP1;P1;durP2;ratioP2;P2;SDS_P1;SDS_P2;PMS_P1;PMS_P2;Temp;Humidity;BMP_temperature;BMP_pressure;BME280_temperature;BME280_humidity;BME280_pressure;Samples;Min_cycle;Max_cycle;Signal;HPM_P1;HPM_P2
2022/01/14 00:01:41;;;;;;;34.30;10.55;;;;;;;2.04;100.00;103719.81;5090007;28;20467;-67
2022/01/14 00:04:06;;;;;;;41.50;16.15;;;;;;;2.04;100.00;103723.28;5090105;28;20046;-67
2022/01/14 00:06:32;;;;;;;40.58;15.60;;;;;;;2.04;100.00;103730.34;5090055;28;20028;-67
2022/01/14 00:09:07;;;;;;;60.67;19.67;;;;;;;2.05;100.00;103718.91;5090147;28;20493;-67
2022/01/14 00:11:50;;;;;;;43.20;14.85;;;;;;;2.04;100.00;103725.94;5089819;28;20035;-67
2022/01/14 00:16:42;;;;;;;34.80;14.27;;;;;;;2.06;100.00;103725.88;5090152;28;20032;-67
2022/01/14 00:19:08;;;;;;;55.33;17.00;;;;;;;2.03;100.00;103716.34;5089533;28;20036;-67
2022/01/14 00:21:35;;;;;;;37.42;15.30;;;;;;;2.05;100.00;103721.53;5088451;28;20043;-67
2022/01/14 00:24:10;;;;;;;37.35;12.50;;;;;;;2.06;100.00;103718.81;5089514;28;20028;-67
2022/01/14 00:32:18;;;;;;;30.70;14.50;;;;;;;2.08;100.00;103710.88;5089860;28;20180;-67
2022/01/14 00:34:44;;;;;;;33.45;12.40;;;;;;;2.07;100.00;103702.13;5089567;28;20039;-67
2022/01/14 00:37:09;;;;;;;32.22;13.65;;;;;;;2.09;100.00;103702.03;5089643;28;20024;-67
2022/01/14 00:39:35;;;;;;;30.20;13.95;;;;;;;2.05;100.00;103687.31;5089573;28;20024;-67
2022/01/14 00:42:01;;;;;;;47.55;14.85;;;;;;;2.01;100.00;103691.00;5088271;28;20031;-67
2022/01/14 00:44:27;;;;;;;33.08;13.23;;;;;;;2.07;100.00;103704.75;5089378;28;20031;-67
2022/01/14 00:46:52;;;;;;;28.10;11.77;;;;;;;2.05;100.00;103695.22;5089278;28;20028;-67
2022/01/14 00:49:20;;;;;;;36.92;13.23;;;;;;;2.06;100.00;103689.03;5088595;28;20490;-67
2022/01/14 00:51:46;;;;;;;31.80;11.07;;;;;;;2.04;100.00;103681.19;5089406;28;20440;-67
2022/01/14 00:54:12;;;;;;;27.33;10.48;;;;;;;2.04;100.00;103667.16;5089193;28;20131;-67
2022/01/14 00:59:16;;;;;;;36.85;12.40;;;;;;;2.02;100.00;103684.81;5089367;28;20036;-67
2022/01/14 01:01:48;;;;;;;29.40;13.38;;;;;;;2.00;100.00;103676.16;5089104;28;20103;-67
2022/01/14 01:04:14;;;;;;;;;;;;;;;2.03;100.00;103676.84;5089648;28;20360;-67
2022/01/14 01:06:41;;;;;;;32.03;10.38;;;;;;;2.02;100.00;103666.38;5089197;28;19912;-67
2022/01/14 01:09:11;;;;;;;30.00;13.00;;;;;;;1.98;100.00;103668.31;5089266;28;20495;-67
2022/01/14 01:11:44;;;;;;;30.45;10.63;;;;;;;2.00;100.00;103663.84;5088967;28;20028;-67
2022/01/14 01:14:17;;;;;;;23.17;11.27;;;;;;;1.96;100.00;103655.25;5089201;28;20130;-67
2022/01/14 01:16:43;;;;;;;32.22;9.73;;;;;;;1.95;100.00;103655.31;5089180;28;20634;-67
2022/01/14 01:19:09;;;;;;;23.55;9.02;;;;;;;1.95;100.00;103663.19;5088894;28;20043;-67
2022/01/14 01:21:34;;;;;;;30.45;11.63;;;;;;;1.90;100.00;103662.56;5088963;28;20035;-67
2022/01/14 01:24:00;;;;;;;29.52;13.57;;;;;;;1.88;100.00;103665.25;5088832;28;20032;-67
2022/01/14 01:26:31;;;;;;;31.70;12.20;;;;;;;1.84;100.00;103661.06;5088936;28;20051;-67
2022/01/14 01:29:06;;;;;;;31.80;10.68;;;;;;;1.84;100.00;103668.09;5088774;28;20113;-67
2022/01/14 01:31:35;;;;;;;25.85;10.88;;;;;;;1.81;100.00;103649.81;5089039;28;20028;-67
2022/01/14 01:34:04;;;;;;;24.75;8.18;;;;;;;1.79;100.00;103656.94;5088861;28;20166;-67
2022/01/14 01:36:29;;;;;;;20.58;7.75;;;;;;;1.79;100.00;103662.19;5087796;28;20491;-67
2022/01/14 01:38:54;;;;;;;26.10;9.85;;;;;;;1.74;100.00;103652.72;5088700;28;20043;-67
2022/01/14 01:41:21;;;;;;;20.88;8.48;;;;;;;1.77;100.00;103659.63;5087734;28;20028;-67
2022/01/14 01:43:51;;;;;;;25.30;9.80;;;;;;;1.79;100.00;103657.78;5088837;28;20032;-67
2022/01/14 01:46:19;;;;;;;26.80;10.65;;;;;;;1.81;100.00;103660.31;5088910;28;20374;-67
2022/01/14 01:48:44;;;;;;;20.15;9.77;;;;;;;1.82;100.00;103655.00;5087330;28;20442;-67
2022/01/14 01:51:10;;;;;;;34.10;11.00;;;;;;;1.80;100.00;103645.47;5088817;28;20059;-67
2022/01/14 01:53:35;;;;;;;40.70;12.02;;;;;;;1.79;100.00;103641.16;5088626;28;20016;-67
2022/01/14 01:56:00;;;;;;;36.78;13.57;;;;;;;1.81;100.00;103649.81;5088653;28;20426;-67
2022/01/14 01:58:26;;;;;;;28.35;13.07;;;;;;;1.79;100.00;103657.78;5088539;28;20125;-67
2022/01/14 02:00:51;;;;;;;33.13;8.48;;;;;;;1.81;100.00;103657.69;5091917;28;20064;-67
2022/01/14 02:03:17;;;;;;;26.38;9.68;;;;;;;1.79;100.00;103664.81;5092353;28;20036;-67
2022/01/14 02:05:44;;;;;;;29.52;9.70;;;;;;;1.71;100.00;103650.22;5092330;28;20039;-67
2022/01/14 02:08:10;;;;;;;28.25;9.68;;;;;;;1.75;100.00;103664.09;5092345;28;20024;-67
2022/01/14 02:10:37;;;;;;;23.92;9.10;;;;;;;1.75;100.00;103658.84;5092223;28;20464;-68
2022/01/14 02:13:03;;;;;;;30.58;12.18;;;;;;;1.71;100.00;103652.03;5092193;28;20036;-67
2022/01/14 02:18:29;;;;;;;30.27;9.95;;;;;;;1.70;100.00;103640.66;5092176;28;20044;-67
2022/01/14 02:23:44;;;;;;;20.83;7.60;;;;;;;1.69;100.00;103644.19;5092365;28;20105;-68
2022/01/14 02:26:10;;;;;;;25.70;9.10;;;;;;;1.68;100.00;103646.91;5091995;28;20043;-67
2022/01/14 02:28:35;;;;;;;23.98;9.55;;;;;;;1.66;100.00;103644.31;5091909;28;20051;-67
2022/01/14 02:31:01;;;;;;;21.90;9.65;;;;;;;1.66;100.00;103646.97;5090543;28;20475;-67
2022/01/14 02:33:26;;;;;;;22.60;9.35;;;;;;;1.66;100.00;103643.47;5074467;28;20047;-67
2022/01/14 02:35:53;;;;;;;24.45;10.02;;;;;;;1.67;100.00;103640.75;5072381;28;20041;-67
2022/01/14 02:38:18;;;;;;;22.70;8.63;;;;;;;1.66;100.00;103639.06;5072326;28;20032;-67
2022/01/14 02:40:45;;;;;;;57.45;12.60;;;;;;;1.65;100.00;103653.16;5072323;28;20490;-67
2022/01/14 02:43:16;;;;;;;21.80;8.85;;;;;;;1.65;100.00;103650.53;5072290;28;20052;-67
2022/01/14 02:45:47;;;;;;;24.45;9.18;;;;;;;1.68;100.00;103652.16;5091076;28;20023;-67
2022/01/14 02:48:14;;;;;;;26.25;8.80;;;;;;;1.66;100.00;103639.06;5090239;28;20043;-67
2022/01/14 02:50:43;;;;;;;22.15;9.95;;;;;;;1.68;100.00;103634.59;5091406;28;20016;-67
2022/01/14 02:53:25;;;;;;;25.23;10.63;;;;;;;1.69;100.00;103635.44;5090153;28;20035;-67
2022/01/14 02:55:53;;;;;;;27.25;9.88;;;;;;;1.66;100.00;103628.53;5091465;28;20028;-67
2022/01/14 02:58:20;;;;;;;23.38;9.85;;;;;;;1.66;100.00;103620.66;5091187;28;20063;-68
2022/01/14 03:00:47;;;;;;;18.02;7.95;;;;;;;1.59;100.00;103619.22;5071788;28;20045;-67
2022/01/14 03:03:16;;;;;;;22.80;8.07;;;;;;;1.62;100.00;103618.22;5091144;28;20067;-69
2022/01/14 03:05:41;;;;;;;24.27;8.82;;;;;;;1.62;100.00;103615.59;5091203;28;20081;-69
2022/01/14 03:08:07;;;;;;;21.15;9.48;;;;;;;1.63;100.00;103626.06;5091096;28;20024;-69
2022/01/14 03:10:32;;;;;;;22.05;9.02;;;;;;;1.62;100.00;103611.19;5090687;28;20509;-69
2022/01/14 03:12:58;;;;;;;21.00;7.43;;;;;;;1.63;100.00;103619.94;5090716;28;20085;-69
2022/01/14 03:15:23;;;;;;;27.60;10.05;;;;;;;1.65;100.00;103621.59;5091052;28;20111;-69
2022/01/14 03:17:49;;;;;;;38.72;11.52;;;;;;;1.60;100.00;103610.41;5090688;28;20541;-69
2022/01/14 03:20:43;;;;;;;22.83;8.50;;;;;;;1.66;100.00;103619.81;5090883;28;20479;-69
2022/01/14 03:23:07;;;;;;;29.77;11.02;;;;;;;1.64;100.00;103619.84;5090317;28;20040;-69
2022/01/14 03:25:48;;;;;;;20.83;7.57;;;;;;;1.55;100.00;103609.78;5090695;28;20028;-69
2022/01/14 03:28:19;;;;;;;20.63;8.35;;;;;;;1.60;100.00;103623.56;5090654;28;20028;-70
2022/01/14 03:30:46;;;;;;;22.52;8.43;;;;;;;1.58;100.00;103621.94;5090697;28;20085;-70
2022/01/14 03:33:11;;;;;;;29.33;10.27;;;;;;;1.58;100.00;103625.41;5090851;28;20103;-70
2022/01/14 03:35:36;;;;;;;26.52;10.02;;;;;;;1.57;100.00;103613.16;5071296;28;20107;-70
2022/01/14 03:38:03;;;;;;;23.95;8.85;;;;;;;1.56;100.00;103608.84;5071171;28;20082;-70
2022/01/14 03:40:28;;;;;;;22.30;8.55;;;;;;;1.57;100.00;103613.16;5090170;28;20032;-69
2022/01/14 03:42:53;;;;;;;61.63;11.38;;;;;;;1.58;100.00;103609.63;5090462;28;20043;-69
2022/01/14 03:45:19;;;;;;;25.75;8.30;;;;;;;1.56;100.00;103603.56;5090314;28;20043;-69
2022/01/14 03:47:44;;;;;;;22.67;8.20;;;;;;;1.53;100.00;103601.09;5090386;28;20020;-69
2022/01/14 03:50:10;;;;;;;37.00;10.10;;;;;;;1.55;100.00;103607.16;5090281;28;20056;-70
2022/01/14 03:52:35;;;;;;;27.88;9.95;;;;;;;1.52;100.00;103605.50;5088842;28;20036;-69
2022/01/14 03:55:01;;;;;;;27.10;7.72;;;;;;;1.51;100.00;103606.41;5090031;28;20035;-69
2022/01/14 03:57:26;;;;;;;21.00;9.82;;;;;;;1.52;100.00;103602.88;5088635;28;20052;-69
2022/01/14 03:59:51;;;;;;;21.95;11.77;;;;;;;1.53;100.00;103607.19;5090194;28;20039;-69
2022/01/14 04:02:17;;;;;;;21.45;7.80;;;;;;;1.53;100.00;103601.09;5088749;28;20490;-69
2022/01/14 04:04:42;;;;;;;29.55;9.57;;;;;;;1.52;100.00;103597.63;5090398;28;20095;-69
2022/01/14 04:07:07;;;;;;;23.42;8.45;;;;;;;1.49;100.00;103594.25;5090087;28;20490;-69
2022/01/14 04:09:36;;;;;;;56.10;11.68;;;;;;;1.44;100.00;103583.09;5090122;28;20395;-69
2022/01/14 04:12:04;;;;;;;31.45;9.60;;;;;;;1.42;100.00;103596.31;5089909;28;20032;-69
2022/01/14 04:16:56;;;;;;;23.75;8.60;;;;;;;1.43;100.00;103594.53;5089685;28;20044;-69
2022/01/14 04:19:24;;;;;;;29.75;8.65;;;;;;;1.42;100.00;103588.44;5089866;28;20039;-69
2022/01/14 04:21:49;;;;;;;26.67;8.65;;;;;;;1.38;100.00;103591.25;5089552;28;20028;-69
2022/01/14 04:24:14;;;;;;;23.95;9.80;;;;;;;1.38;100.00;103599.16;5088713;28;20549;-69
2022/01/14 04:26:39;;;;;;;27.63;10.30;;;;;;;1.38;100.00;103604.41;5089593;28;20471;-69
2022/01/14 04:29:05;;;;;;;26.45;8.50;;;;;;;1.38;100.00;103602.63;5089615;28;20476;-69
2022/01/14 04:31:30;;;;;;;23.13;7.80;;;;;;;1.36;100.00;103593.94;5089590;28;20494;-69
2022/01/14 04:33:55;;;;;;;19.55;7.55;;;;;;;1.35;100.00;103594.88;5089608;28;20122;-69
2022/01/14 04:36:21;;;;;;;27.48;10.65;;;;;;;1.35;100.00;103591.41;5089472;28;20024;-69
2022/01/14 04:38:46;;;;;;;22.58;8.15;;;;;;;1.35;100.00;103584.38;5089432;28;20024;-69
2022/01/14 04:41:12;;;;;;;22.00;9.18;;;;;;;1.35;100.00;103576.47;5070219;28;20477;-69
2022/01/14 04:43:38;;;;;;;21.63;8.57;;;;;;;1.34;100.00;103576.53;5068822;28;20415;-69
2022/01/14 04:48:35;;;;;;;18.42;7.78;;;;;;;1.36;100.00;103577.31;5089545;28;20032;-70
2022/01/14 04:51:06;;;;;;;23.58;9.00;;;;;;;1.33;100.00;103575.69;5089372;28;20468;-70
2022/01/14 04:53:33;;;;;;;20.23;9.10;;;;;;;1.33;100.00;103570.41;5089439;28;20111;-69
2022/01/14 04:55:59;;;;;;;25.05;8.23;;;;;;;1.34;100.00;103576.53;5089252;28;20883;-69
2022/01/14 04:58:26;;;;;;;20.83;8.43;;;;;;;1.36;100.00;103569.44;5088925;28;20047;-69
2022/01/14 05:00:52;;;;;;;23.85;8.32;;;;;;;1.34;100.00;103561.63;5089258;28;20032;-69
2022/01/14 05:03:18;;;;;;;22.95;8.38;;;;;;;1.34;100.00;103550.22;5089195;28;20089;-69
2022/01/14 05:05:46;;;;;;;24.30;9.80;;;;;;;1.30;100.00;103545.13;5089346;28;20384;-69
2022/01/14 05:08:19;;;;;;;23.63;7.25;;;;;;;1.27;100.00;103536.53;5089156;28;20024;-70
2022/01/14 05:13:13;;;;;;;22.80;10.13;;;;;;;1.23;100.00;103533.19;5085890;28;20493;-70
2022/01/14 05:15:39;;;;;;;23.58;9.77;;;;;;;1.24;100.00;103534.06;5069781;28;20108;-70
2022/01/14 05:18:04;;;;;;;26.13;8.75;;;;;;;1.24;100.00;103549.81;5069670;28;20025;-69
2022/01/14 05:20:30;;;;;;;22.85;8.00;;;;;;;1.19;100.00;103547.38;5088948;28;20035;-69
2022/01/14 05:22:55;;;;;;;20.27;8.48;;;;;;;1.19;100.00;103546.53;5087597;28;20036;-70
2022/01/14 05:25:20;;;;;;;25.10;8.57;;;;;;;1.11;100.00;103533.75;5088947;28;20115;-69
2022/01/14 05:27:46;;;;;;;20.60;6.93;;;;;;;1.10;100.00;103532.00;5089035;28;20024;-70
2022/01/14 05:30:13;;;;;;;19.27;6.45;;;;;;;1.11;100.00;103544.25;5087930;28;20032;-69
2022/01/14 05:32:52;;;;;;;19.45;8.15;;;;;;;1.09;100.00;103546.09;5089013;28;20493;-69
2022/01/14 05:35:22;;;;;;;19.65;7.80;;;;;;;1.08;100.00;103541.78;5090055;28;20905;-69
2022/01/14 05:37:48;;;;;;;39.85;9.30;;;;;;;1.05;100.00;103542.75;5092712;28;20054;-67
2022/01/14 05:40:15;;;;;;;18.70;7.63;;;;;;;1.04;100.00;103542.81;5092896;28;20036;-67
2022/01/14 05:42:41;;;;;;;36.30;10.75;;;;;;;1.03;100.00;103543.75;5091642;28;20111;-67
2022/01/14 05:45:09;;;;;;;19.92;8.68;;;;;;;1.04;100.00;103545.44;5073287;28;20099;-67
2022/01/14 05:47:37;;;;;;;19.27;8.05;;;;;;;1.03;100.00;103538.50;5092656;28;20020;-67
2022/01/14 05:50:04;;;;;;;34.92;9.40;;;;;;;1.03;100.00;103530.59;5092610;28;20050;-67
2022/01/14 05:52:30;;;;;;;20.75;7.85;;;;;;;1.05;100.00;103520.88;5092557;28;20032;-67
2022/01/14 05:54:55;;;;;;;21.90;7.88;;;;;;;1.01;100.00;103527.19;5092727;28;20039;-67
2022/01/14 05:57:21;;;;;;;22.20;7.15;;;;;;;1.05;100.00;103534.88;5092265;28;20052;-67
2022/01/14 05:59:47;;;;;;;19.65;8.60;;;;;;;1.07;100.00;103535.66;5092459;28;20031;-67
2022/01/14 06:02:13;;;;;;;23.83;8.68;;;;;;;1.09;100.00;103527.69;5092452;28;20963;-67
2022/01/14 06:04:38;;;;;;;23.83;7.88;;;;;;;1.09;100.00;103533.78;5092260;28;20028;-67
2022/01/14 06:07:04;;;;;;;24.75;7.93;;;;;;;1.11;100.00;103538.16;5092345;28;20040;-67
2022/01/14 06:09:29;;;;;;;25.38;8.52;;;;;;;1.06;100.00;103536.56;5092267;28;20043;-67
2022/01/14 06:11:54;;;;;;;20.88;8.18;;;;;;;1.05;100.00;103545.38;5092124;28;20047;-67
2022/01/14 06:14:20;;;;;;;29.38;9.02;;;;;;;1.05;100.00;103545.38;5092132;28;20061;-68
2022/01/14 06:16:46;;;;;;;17.02;7.50;;;;;;;1.06;100.00;103543.59;5091989;28;20077;-68
2022/01/14 06:19:11;;;;;;;25.88;9.88;;;;;;;1.04;100.00;103546.28;5092254;28;20479;-67
2022/01/14 06:21:36;;;;;;;17.27;6.95;;;;;;;1.02;100.00;103549.91;5091803;28;20036;-67
2022/01/14 06:24:02;;;;;;;32.88;8.98;;;;;;;1.02;100.00;103544.66;5090947;28;20035;-67
2022/01/14 06:26:27;;;;;;;16.02;7.40;;;;;;;1.02;100.00;103550.78;5090635;28;20467;-67
2022/01/14 06:28:53;;;;;;;20.90;8.23;;;;;;;1.01;100.00;103556.94;5091927;28;20027;-67
2022/01/14 06:31:19;;;;;;;24.80;8.65;;;;;;;0.99;100.00;103544.78;5091957;28;20028;-67
2022/01/14 06:33:44;;;;;;;23.48;8.70;;;;;;;0.96;100.00;103526.53;5091720;28;20085;-67
2022/01/14 06:36:10;;;;;;;30.38;7.68;;;;;;;0.95;100.00;103535.34;5082295;28;20028;-67
2022/01/14 06:38:35;;;;;;;26.73;9.73;;;;;;;0.89;100.00;103544.31;5072188;28;20071;-67
2022/01/14 06:41:02;;;;;;;40.85;9.00;;;;;;;0.88;100.00;103547.88;5070994;28;20060;-67
2022/01/14 06:43:27;;;;;;;24.50;7.35;;;;;;;0.88;100.00;103542.63;5072284;28;20395;-67
2022/01/14 06:45:52;;;;;;;20.77;6.97;;;;;;;0.84;100.00;103547.19;5071222;28;20025;-67
2022/01/14 06:48:18;;;;;;;23.60;7.57;;;;;;;0.82;100.00;103543.75;5072349;28;20055;-67
2022/01/14 06:50:43;;;;;;;28.00;9.40;;;;;;;0.81;100.00;103547.31;5091452;28;20531;-67
2022/01/14 06:53:09;;;;;;;19.02;7.45;;;;;;;0.75;100.00;103531.78;5090110;28;20044;-67
2022/01/14 06:55:34;;;;;;;22.98;8.13;;;;;;;0.83;100.00;103540.19;5091396;28;20524;-68
2022/01/14 06:57:59;;;;;;;30.77;8.73;;;;;;;0.83;100.00;103553.34;5091039;28;20044;-67
2022/01/14 07:00:25;;;;;;;30.15;7.75;;;;;;;0.84;100.00;103552.44;5091301;28;20031;-67
2022/01/14 07:02:51;;;;;;;26.67;8.50;;;;;;;0.85;100.00;103546.25;5091273;28;20383;-67
2022/01/14 07:05:16;;;;;;;22.27;7.75;;;;;;;0.83;100.00;103537.56;5091111;28;20460;-67
2022/01/14 07:07:41;;;;;;;18.60;8.20;;;;;;;0.88;100.00;103532.97;5091036;28;20039;-67
2022/01/14 07:10:08;;;;;;;20.05;9.00;;;;;;;0.91;100.00;103539.00;5090762;28;20031;-67
2022/01/14 07:12:42;;;;;;;24.80;8.00;;;;;;;0.91;100.00;103541.66;5090924;28;20975;-67
2022/01/14 07:15:12;;;;;;;19.15;9.77;;;;;;;0.91;100.00;103542.50;5090962;28;20020;-67
2022/01/14 07:17:39;;;;;;;22.83;9.40;;;;;;;0.87;100.00;103536.53;5089706;28;20036;-67
2022/01/14 07:20:08;;;;;;;25.35;9.30;;;;;;;0.79;100.00;103535.16;5090935;28;20093;-67
2022/01/14 07:22:34;;;;;;;20.15;8.00;;;;;;;0.85;100.00;103545.41;5089705;28;20044;-67
2022/01/14 07:25:00;;;;;;;29.35;9.55;;;;;;;0.84;100.00;103544.56;5090648;28;20035;-67
2022/01/14 07:27:27;;;;;;;26.70;7.80;;;;;;;0.81;100.00;103542.06;5090479;28;20035;-67
2022/01/14 07:29:52;;;;;;;46.13;8.98;;;;;;;0.80;100.00;103556.09;5090636;28;20038;-67
2022/01/14 07:32:18;;;;;;;25.30;8.65;;;;;;;0.86;100.00;103557.59;5090673;28;20114;-67
2022/01/14 07:34:45;;;;;;;18.60;7.88;;;;;;;0.88;100.00;103550.50;5090710;28;20032;-67
2022/01/14 07:37:10;;;;;;;28.85;9.93;;;;;;;0.91;100.00;103555.63;5090765;28;20411;-67
2022/01/14 07:39:36;;;;;;;29.80;11.90;;;;;;;0.91;100.00;103555.63;5090363;28;20066;-67
2022/01/14 07:42:01;;;;;;;27.25;8.30;;;;;;;0.90;100.00;103551.31;5090523;28;20031;-69
2022/01/14 07:44:27;;;;;;;39.33;9.88;;;;;;;0.92;100.00;103556.47;5090319;28;20024;-66
2022/01/14 07:46:52;;;;;;;30.55;9.10;;;;;;;0.92;100.00;103557.34;5090237;28;20028;-67
2022/01/14 07:49:18;;;;;;;25.15;10.27;;;;;;;0.93;100.00;103571.34;5090290;28;20075;-66
2022/01/14 07:51:43;;;;;;;26.50;8.57;;;;;;;0.94;100.00;103560.75;5090193;28;20574;-67
2022/01/14 07:54:08;;;;;;;38.05;10.75;;;;;;;0.90;100.00;103566.22;5090210;28;20497;-67
2022/01/14 07:56:36;;;;;;;23.23;7.95;;;;;;;0.86;100.00;103552.34;5089903;28;20071;-66
2022/01/14 07:59:03;;;;;;;27.40;8.93;;;;;;;0.84;100.00;103544.56;5089230;28;20028;-67
2022/01/14 08:01:28;;;;;;;24.48;7.68;;;;;;;0.83;100.00;103544.59;5089628;28;20140;-68
2022/01/14 08:03:53;;;;;;;28.08;9.00;;;;;;;0.85;100.00;103548.88;5090081;28;20040;-67
2022/01/14 08:06:19;;;;;;;28.52;8.73;;;;;;;0.86;100.00;103536.59;5089958;28;20123;-67
2022/01/14 08:08:44;;;;;;;23.17;9.15;;;;;;;0.84;100.00;103536.66;5090163;28;20024;-67
2022/01/14 08:11:10;;;;;;;31.38;10.95;;;;;;;0.87;100.00;103540.94;5089640;28;20028;-67
2022/01/14 08:13:35;;;;;;;20.10;8.70;;;;;;;0.83;100.00;103534.94;5089775;28;20028;-67
2022/01/14 08:16:01;;;;;;;42.65;8.88;;;;;;;0.90;100.00;103530.28;5089543;28;20030;-68
2022/01/14 08:18:26;;;;;;;24.98;10.70;;;;;;;0.93;100.00;103543.28;5089810;28;20020;-68
2022/01/14 08:20:52;;;;;;;31.67;11.35;;;;;;;0.93;100.00;103553.78;5089607;28;20050;-68
2022/01/14 08:23:19;;;;;;;32.33;10.18;;;;;;;0.94;100.00;103541.50;5089856;28;20047;-68
2022/01/14 08:25:44;;;;;;;38.47;9.10;;;;;;;0.95;100.00;103549.34;5089480;28;20048;-68
2022/01/14 08:28:10;;;;;;;24.27;8.40;;;;;;;0.89;100.00;103536.44;5088237;28;20413;-69
2022/01/14 08:30:35;;;;;;;27.10;10.20;;;;;;;0.95;100.00;103548.50;5088382;28;20126;-68
2022/01/14 08:33:00;;;;;;;26.48;8.05;;;;;;;0.90;100.00;103547.84;5089441;28;20113;-68
2022/01/14 08:35:26;;;;;;;29.38;9.45;;;;;;;0.96;100.00;103568.56;5089281;28;20482;-68
2022/01/14 08:37:51;;;;;;;24.15;9.52;;;;;;;0.96;100.00;103555.44;5089357;28;20386;-68
2022/01/14 08:40:17;;;;;;;21.90;8.02;;;;;;;0.95;100.00;103554.59;5089642;28;20036;-68
2022/01/14 08:42:45;;;;;;;24.00;9.23;;;;;;;1.01;100.00;103559.56;5088182;28;20024;-69
2022/01/14 08:45:10;;;;;;;24.88;8.13;;;;;;;1.03;100.00;103562.13;5089156;28;20032;-68
2022/01/14 08:47:35;;;;;;;66.93;12.35;;;;;;;1.01;100.00;103556.94;5089340;28;20024;-68
2022/01/14 08:50:01;;;;;;;26.98;9.93;;;;;;;1.04;100.00;103555.94;5089298;28;20020;-68
2022/01/14 08:52:27;;;;;;;33.60;13.02;;;;;;;1.07;100.00;103575.09;5089217;28;20055;-68
2022/01/14 08:54:53;;;;;;;33.30;11.50;;;;;;;1.08;100.00;103571.53;5089410;28;20040;-68
2022/01/14 08:57:18;;;;;;;26.67;10.02;;;;;;;1.06;100.00;103564.63;5089012;28;20044;-68
2022/01/14 08:59:44;;;;;;;24.20;9.75;;;;;;;1.12;100.00;103566.13;5089192;28;20184;-68
2022/01/14 09:02:10;;;;;;;27.25;12.15;;;;;;;1.12;100.00;103555.63;5089178;28;20463;-68
2022/01/14 09:04:35;;;;;;;22.42;10.02;;;;;;;1.18;100.00;103540.44;5087512;28;20032;-69
2022/01/14 09:07:01;;;;;;;38.75;12.80;;;;;;;1.20;100.00;103543.81;5089123;28;20050;-69
2022/01/14 09:09:27;;;;;;;29.55;12.00;;;;;;;1.24;100.00;103560.34;5088827;28;20034;-69
2022/01/14 09:11:54;;;;;;;33.55;11.88;;;;;;;1.23;100.00;103559.50;5093437;28;20032;-68
2022/01/14 09:14:21;;;;;;;57.15;11.60;;;;;;;1.26;100.00;103551.47;5079484;28;20097;-68
2022/01/14 09:16:47;;;;;;;36.65;13.98;;;;;;;1.25;100.00;103536.59;5089176;28;20039;-66
2022/01/14 09:19:12;;;;;;;25.58;11.05;;;;;;;1.33;100.00;103549.38;5077179;28;20020;-68
2022/01/14 09:21:38;;;;;;;40.17;10.77;;;;;;;1.35;100.00;103565.94;5077889;28;20470;-69
2022/01/14 09:24:03;;;;;;;41.72;12.68;;;;;;;1.33;100.00;103562.53;5074026;28;20591;-66
2022/01/14 09:26:35;;;;;;;36.58;10.57;;;;;;;1.35;100.00;103573.84;5073759;28;20035;-66
2022/01/14 09:29:02;;;;;;;28.17;11.48;;;;;;;1.37;100.00;103579.03;5092818;28;20024;-67
2022/01/14 09:31:27;;;;;;;24.38;9.13;;;;;;;1.39;100.00;103571.91;5091633;28;20382;-67
2022/01/14 09:33:53;;;;;;;32.08;11.07;;;;;;;1.40;100.00;103571.84;5092682;28;20093;-67
2022/01/14 09:36:18;;;;;;;26.52;11.23;;;;;;;1.40;100.00;103565.75;5092908;28;20043;-67
2022/01/14 09:38:44;;;;;;;31.98;12.85;;;;;;;1.39;100.00;103570.16;5092725;28;20036;-66
2022/01/14 09:41:13;;;;;;;42.25;10.63;;;;;;;1.45;100.00;103571.66;5092809;28;20971;-67
2022/01/14 09:43:39;;;;;;;28.00;10.30;;;;;;;1.46;100.00;103571.56;5073401;28;20467;-67
2022/01/14 09:46:08;;;;;;;27.55;9.77;;;;;;;1.48;100.00;103584.66;5073163;28;20040;-66
2022/01/14 09:48:35;;;;;;;27.15;10.45;;;;;;;1.48;100.00;103582.03;5092354;28;20039;-67
2022/01/14 09:51:01;;;;;;;41.15;13.73;;;;;;;1.52;100.00;103581.84;5092505;28;20108;-67
2022/01/14 09:53:28;;;;;;;21.40;9.23;;;;;;;1.56;100.00;103582.53;5092576;28;20040;-67
2022/01/14 09:55:54;;;;;;;35.40;11.93;;;;;;;1.53;100.00;103573.00;5092469;28;20437;-67
2022/01/14 09:58:23;;;;;;;31.58;11.05;;;;;;;1.60;100.00;103594.63;5092371;28;20105;-67
2022/01/14 10:00:49;;;;;;;30.98;11.13;;;;;;;1.65;100.00;103591.78;5092664;28;20031;-67
2022/01/14 10:03:22;;;;;;;31.33;11.18;;;;;;;1.67;100.00;103584.66;5092204;28;20123;-67
2022/01/14 10:05:51;;;;;;;31.33;10.50;;;;;;;1.71;100.00;103591.50;5092502;28;20085;-67
2022/01/14 10:08:22;;;;;;;29.55;11.90;;;;;;;1.72;100.00;103583.53;5092436;28;20028;-67
2022/01/14 10:10:51;;;;;;;30.40;12.27;;;;;;;1.78;100.00;103590.28;5092414;28;20020;-66
2022/01/14 10:13:22;;;;;;;60.13;13.13;;;;;;;1.84;100.00;103594.44;5090829;28;20097;-67
2022/01/14 10:15:58;;;;;;;26.67;11.23;;;;;;;1.85;100.00;103581.19;5091972;28;20047;-67
2022/01/14 10:18:24;;;;;;;29.70;13.57;;;;;;;1.88;100.00;103588.94;5088169;28;20382;-67
2022/01/14 10:20:51;;;;;;;23.63;11.32;;;;;;;1.90;100.00;103586.25;5092059;28;20030;-69
2022/01/14 10:23:17;;;;;;;24.85;10.85;;;;;;;1.89;100.00;103587.19;5092052;28;20032;-67
2022/01/14 10:25:56;;;;;;;24.77;11.93;;;;;;;1.95;100.00;103592.13;5077877;28;20356;-67
2022/01/14 10:28:22;;;;;;;24.70;11.70;;;;;;;2.00;100.00;103589.28;5091951;28;20023;-67
2022/01/14 10:30:49;;;;;;;23.77;10.40;;;;;;;2.04;100.00;103575.03;5091712;28;20028;-67
2022/01/14 10:33:20;;;;;;;31.25;14.27;;;;;;;2.08;100.00;103581.88;5091914;28;20107;-67
2022/01/14 10:35:46;;;;;;;30.77;14.17;;;;;;;2.09;100.00;103570.41;5092006;28;20024;-67
2022/01/14 10:38:18;;;;;;;26.55;11.68;;;;;;;2.18;100.00;103570.84;5091655;28;20641;-67
2022/01/14 10:40:55;;;;;;;22.77;11.13;;;;;;;2.24;100.00;103572.31;5091646;28;20024;-66
2022/01/14 10:43:22;;;;;;;25.50;12.48;;;;;;;2.24;100.00;103569.69;5091726;28;20035;-67
2022/01/14 10:45:50;;;;;;;29.25;11.38;;;;;;;2.29;100.00;103577.34;5091580;28;20019;-67
2022/01/14 10:48:25;;;;;;;27.38;11.75;;;;;;;2.29;100.00;103569.47;5091486;28;20024;-66
2022/01/14 10:51:07;;;;;;;27.75;13.68;;;;;;;2.29;100.00;103570.31;5091382;28;20028;-66
2022/01/14 10:53:35;;;;;;;21.27;10.38;;;;;;;2.33;100.00;103571.88;5072141;28;20117;-67
2022/01/14 10:56:04;;;;;;;28.42;13.50;;;;;;;2.33;100.00;103561.34;5072040;28;20099;-67
2022/01/14 10:58:32;;;;;;;27.48;11.15;;;;;;;2.37;100.00;103565.50;5071895;28;20048;-67
2022/01/14 11:01:03;;;;;;;22.98;10.40;;;;;;;2.40;100.00;103560.09;5071983;28;20052;-66
2022/01/14 11:03:38;;;;;;;23.30;10.33;;;;;;;2.45;100.00;103562.50;5071881;28;20058;-67
2022/01/14 11:06:24;;;;;;;26.08;11.45;;;;;;;2.49;100.00;103552.66;5071776;28;20269;-67
2022/01/14 11:09:02;;;;;;;26.15;12.27;;;;;;;2.52;100.00;103548.09;5081424;28;20031;-67
2022/01/14 11:11:35;;;;;;;25.85;11.82;;;;;;;2.55;100.00;103547.09;5074655;28;20024;-67
2022/01/14 11:14:02;;;;;;;24.23;11.05;;;;;;;2.58;100.00;103553.06;5075776;28;20039;-68
2022/01/14 11:16:28;;;;;;;28.15;11.80;;;;;;;2.61;100.00;103542.34;5074878;28;20035;-67
2022/01/14 11:18:57;;;;;;;23.15;10.32;;;;;;;2.66;100.00;103536.00;5074100;28;20024;-67
2022/01/14 11:24:13;;;;;;;27.17;12.75;;;;;;;2.72;100.00;103535.69;5049472;28;20036;-67
2022/01/14 11:26:40;;;;;;;26.33;14.65;;;;;;;2.72;100.00;103541.78;5074544;28;20052;-66
2022/01/14 11:29:10;;;;;;;29.42;13.25;;;;;;;2.75;100.00;103544.31;5075556;28;20097;-67
2022/01/14 11:31:38;;;;;;;32.53;14.82;;;;;;;2.78;100.00;103540.66;5074391;28;20039;-67
2022/01/14 11:34:06;;;;;;;24.45;12.55;;;;;;;2.79;100.00;103539.72;5075224;28;20031;-67
2022/01/14 11:36:58;;;;;;;31.23;15.55;;;;;;;2.81;100.00;103543.13;5075487;28;20099;-67
2022/01/14 11:39:25;;;;;;;;;;;;;;;2.84;100.00;103548.25;5074242;28;20116;-66
2022/01/14 11:41:57;;;;;;;31.27;15.73;;;;;;;2.83;100.00;103549.19;5074894;28;21323;-66